sensor_id;sensor_type;location;lat;lon;timestamp;pressure;altitude;pressure_sealevel;temperature;humidity
49645;BME280;36494;50.730;-1.932;2023-02-28T00:01:50;102697.03;;;4.64;100.00
49645;BME280;36494;50.730;-1.932;2023-02-28T00:04:15;102698.11;;;4.66;100.00
49645;BME280;36494;50.730;-1.932;2023-02-28T00:06:41;102699.37;;;4.65;100.00
49645;BME280;36494;50.730;-1.932;2023-02-28T00:09:06;102698.02;;;4.65;100.00
49645;BME280;36494;50.730;-1.932;2023-02-28T00:11:32;102691.74;;;4.62;100.00
49645;BME280;36494;50.730;-1.932;2023-02-28T00:13:57;102690.41;;;4.62;100.00
49645;BME280;36494;50.730;-1.932;2023-02-28T00:16:23;102691.34;;;4.61;100.00
49645;BME280;36494;50.730;-1.932;2023-02-28T00:18:49;102696.38;;;4.58;100.00
49645;BME280;36494;50.730;-1.932;2023-02-28T00:21:14;102694.81;;;4.56;100.00
49645;BME280;36494;50.730;-1.932;2023-02-28T00:23:39;102696.17;;;4.56;100.00
49645;BME280;36494;50.730;-1.932;2023-02-28T00:26:04;102696.64;;;4.50;100.00
49645;BME280;36494;50.730;-1.932;2023-02-28T00:28:31;102701.27;;;4.48;100.00
49645;BME280;36494;50.730;-1.932;2023-02-28T00:30:56;102701.13;;;4.43;100.00
49645;BME280;36494;50.730;-1.932;2023-02-28T00:33:21;102698.02;;;4.37;100.00
49645;BME280;36494;50.730;-1.932;2023-02-28T00:35:47;102701.73;;;4.35;100.00
49645;BME280;36494;50.730;-1.932;2023-02-28T00:38:12;102708.19;;;4.33;100.00
49645;BME280;36494;50.730;-1.932;2023-02-28T00:40:38;102712.95;;;4.30;100.00
49645;BME280;36494;50.730;-1.932;2023-02-28T00:43:03;102711.78;;;4.25;100.00
49645;BME280;36494;50.730;-1.932;2023-02-28T00:45:28;102709.53;;;4.19;100.00
49645;BME280;36494;50.730;-1.932;2023-02-28T00:47:54;102708.44;;;4.12;100.00
49645;BME280;36494;50.730;-1.932;2023-02-28T00:50:20;102709.17;;;4.08;100.00
49645;BME280;36494;50.730;-1.932;2023-02-28T00:52:45;102703.51;;;4.05;100.00
49645;BME280;36494;50.730;-1.932;2023-02-28T00:55:11;102704.15;;;4.00;100.00
49645;BME280;36494;50.730;-1.932;2023-02-28T00:57:36;102704.59;;;3.94;100.00
49645;BME280;36494;50.730;-1.932;2023-02-28T01:00:03;102711.95;;;3.91;100.00
49645;BME280;36494;50.730;-1.932;2023-02-28T01:02:28;102717.83;;;3.87;100.00
49645;BME280;36494;50.730;-1.932;2023-02-28T01:04:53;102715.98;;;3.78;100.00
49645;BME280;36494;50.730;-1.932;2023-02-28T01:07:19;102719.08;;;3.73;100.00
49645;BME280;36494;50.730;-1.932;2023-02-28T01:09:44;102721.99;;;3.72;100.00
49645;BME280;36494;50.730;-1.932;2023-02-28T01:12:10;102721.02;;;3.65;100.00
49645;BME280;36494;50.730;-1.932;2023-02-28T01:14:35;102721.75;;;3.60;100.00
49645;BME280;36494;50.730;-1.932;2023-02-28T01:17:01;102726.56;;;3.57;100.00
49645;BME280;36494;50.730;-1.932;2023-02-28T01:19:26;102727.33;;;3.53;100.00
49645;BME280;36494;50.730;-1.932;2023-02-28T01:21:51;102724.85;;;3.50;100.00
49645;BME280;36494;50.730;-1.932;2023-02-28T01:24:17;102725.39;;;3.43;100.00
49645;BME280;36494;50.730;-1.932;2023-02-28T01:26:42;102726.09;;;3.41;100.00
49645;BME280;36494;50.730;-1.932;2023-02-28T01:29:08;102727.92;;;3.37;100.00
49645;BME280;36494;50.730;-1.932;2023-02-28T01:31:33;102728.31;;;3.33;100.00
49645;BME280;36494;50.730;-1.932;2023-02-28T01:33:59;102727.58;;;3.30;100.00
49645;BME280;36494;50.730;-1.932;2023-02-28T01:36:24;102732.32;;;3.23;100.00
49645;BME280;36494;50.730;-1.932;2023-02-28T01:38:49;102731.10;;;3.16;100.00
49645;BME280;36494;50.730;-1.932;2023-02-28T01:41:17;102730.79;;;3.14;100.00
49645;BME280;36494;50.730;-1.932;2023-02-28T01:43:52;102729.56;;;3.11;100.00
49645;BME280;36494;50.730;-1.932;2023-02-28T01:46:05;102723.42;;;3.05;100.00
49645;BME280;36494;50.730;-1.932;2023-02-28T01:48:32;102719.63;;;2.99;100.00
49645;BME280;36494;50.730;-1.932;2023-02-28T01:51:00;102720.96;;;2.97;100.00
49645;BME280;36494;50.730;-1.932;2023-02-28T01:53:24;102718.44;;;2.92;100.00
49645;BME280;36494;50.730;-1.932;2023-02-28T01:55:48;102718.60;;;2.90;100.00
49645;BME280;36494;50.730;-1.932;2023-02-28T01:58:12;102715.16;;;2.83;100.00
49645;BME280;36494;50.730;-1.932;2023-02-28T02:00:37;102716.28;;;2.79;100.00
49645;BME280;36494;50.730;-1.932;2023-02-28T02:03:07;102716.16;;;2.76;100.00
49645;BME280;36494;50.730;-1.932;2023-02-28T02:05:30;102716.76;;;2.71;100.00
49645;BME280;36494;50.730;-1.932;2023-02-28T02:07:55;102718.75;;;2.68;100.00
49645;BME280;36494;50.730;-1.932;2023-02-28T02:10:21;102718.82;;;2.64;100.00
49645;BME280;36494;50.730;-1.932;2023-02-28T02:13:08;102720.78;;;2.56;100.00
49645;BME280;36494;50.730;-1.932;2023-02-28T02:15:14;102719.74;;;2.56;100.00
49645;BME280;36494;50.730;-1.932;2023-02-28T02:17:39;102718.66;;;2.54;100.00
49645;BME280;36494;50.730;-1.932;2023-02-28T02:20:19;102714.91;;;2.48;100.00
49645;BME280;36494;50.730;-1.932;2023-02-28T02:25:06;102718.03;;;2.44;100.00
49645;BME280;36494;50.730;-1.932;2023-02-28T02:27:28;102720.65;;;2.39;100.00
49645;BME280;36494;50.730;-1.932;2023-02-28T02:29:56;102722.61;;;2.37;100.00
49645;BME280;36494;50.730;-1.932;2023-02-28T02:32:25;102723.18;;;2.34;100.00
49645;BME280;36494;50.730;-1.932;2023-02-28T02:34:43;102722.87;;;2.31;100.00
49645;BME280;36494;50.730;-1.932;2023-02-28T02:37:09;102722.65;;;2.28;100.00
49645;BME280;36494;50.730;-1.932;2023-02-28T02:39:30;102725.86;;;2.23;100.00
49645;BME280;36494;50.730;-1.932;2023-02-28T02:41:52;102725.17;;;2.17;100.00
49645;BME280;36494;50.730;-1.932;2023-02-28T02:44:20;102724.90;;;2.18;100.00
49645;BME280;36494;50.730;-1.932;2023-02-28T02:46:44;102725.25;;;2.15;100.00
49645;BME280;36494;50.730;-1.932;2023-02-28T02:49:12;102726.98;;;2.10;100.00
49645;BME280;36494;50.730;-1.932;2023-02-28T02:51:33;102722.20;;;2.08;100.00
49645;BME280;36494;50.730;-1.932;2023-02-28T02:54:02;102720.87;;;2.05;100.00
49645;BME280;36494;50.730;-1.932;2023-02-28T02:56:27;102716.67;;;2.01;100.00
49645;BME280;36494;50.730;-1.932;2023-02-28T02:58:51;102713.63;;;1.99;100.00
49645;BME280;36494;50.730;-1.932;2023-02-28T03:01:18;102711.00;;;1.97;100.00
49645;BME280;36494;50.730;-1.932;2023-02-28T03:03:40;102713.02;;;1.95;100.00
49645;BME280;36494;50.730;-1.932;2023-02-28T03:06:06;102711.84;;;1.93;100.00
49645;BME280;36494;50.730;-1.932;2023-02-28T03:08:35;102713.68;;;1.91;100.00
49645;BME280;36494;50.730;-1.932;2023-02-28T03:10:58;102718.61;;;1.90;100.00
49645;BME280;36494;50.730;-1.932;2023-02-28T03:13:37;102720.87;;;1.90;100.00
49645;BME280;36494;50.730;-1.932;2023-02-28T03:15:58;102719.26;;;1.86;100.00
49645;BME280;36494;50.730;-1.932;2023-02-28T03:18:16;102723.66;;;1.81;100.00
49645;BME280;36494;50.730;-1.932;2023-02-28T03:20:42;102726.21;;;1.82;100.00
49645;BME280;36494;50.730;-1.932;2023-02-28T03:23:13;102724.02;;;1.78;100.00
49645;BME280;36494;50.730;-1.932;2023-02-28T03:25:33;102721.79;;;1.76;100.00
49645;BME280;36494;50.730;-1.932;2023-02-28T03:28:00;102725.05;;;1.73;100.00
49645;BME280;36494;50.730;-1.932;2023-02-28T03:30:26;102726.17;;;1.70;100.00
49645;BME280;36494;50.730;-1.932;2023-02-28T03:32:51;102728.82;;;1.68;100.00
49645;BME280;36494;50.730;-1.932;2023-02-28T03:35:14;102730.68;;;1.65;100.00
49645;BME280;36494;50.730;-1.932;2023-02-28T03:37:39;102728.30;;;1.66;100.00
49645;BME280;36494;50.730;-1.932;2023-02-28T03:40:06;102722.84;;;1.65;100.00
49645;BME280;36494;50.730;-1.932;2023-02-28T03:42:29;102731.18;;;1.61;100.00
49645;BME280;36494;50.730;-1.932;2023-02-28T03:44:56;102727.01;;;1.59;100.00
49645;BME280;36494;50.730;-1.932;2023-02-28T03:47:24;102726.57;;;1.55;100.00
49645;BME280;36494;50.730;-1.932;2023-02-28T03:49:48;102729.63;;;1.54;100.00
49645;BME280;36494;50.730;-1.932;2023-02-28T03:52:10;102732.96;;;1.51;100.00
49645;BME280;36494;50.730;-1.932;2023-02-28T03:54:39;102728.50;;;1.49;100.00
49645;BME280;36494;50.730;-1.932;2023-02-28T03:57:05;102728.01;;;1.47;100.00
49645;BME280;36494;50.730;-1.932;2023-02-28T03:59:29;102729.89;;;1.47;100.00
49645;BME280;36494;50.730;-1.932;2023-02-28T04:01:52;102730.14;;;1.45;100.00
49645;BME280;36494;50.730;-1.932;2023-02-28T04:04:18;102726.51;;;1.43;100.00
49645;BME280;36494;50.730;-1.932;2023-02-28T04:06:43;102728.01;;;1.40;100.00
49645;BME280;36494;50.730;-1.932;2023-02-28T04:09:10;102725.31;;;1.38;100.00
49645;BME280;36494;50.730;-1.932;2023-02-28T04:11:36;102723.09;;;1.36;100.00
49645;BME280;36494;50.730;-1.932;2023-02-28T04:13:59;102725.16;;;1.34;100.00
49645;BME280;36494;50.730;-1.932;2023-02-28T04:16:25;102728.22;;;1.33;100.00
49645;BME280;36494;50.730;-1.932;2023-02-28T04:18:50;102728.84;;;1.32;100.00
49645;BME280;36494;50.730;-1.932;2023-02-28T04:21:16;102723.13;;;1.27;100.00
49645;BME280;36494;50.730;-1.932;2023-02-28T04:23:41;102725.01;;;1.27;100.00
49645;BME280;36494;50.730;-1.932;2023-02-28T04:26:07;102728.70;;;1.26;100.00
49645;BME280;36494;50.730;-1.932;2023-02-28T04:28:32;102724.66;;;1.26;100.00
49645;BME280;36494;50.730;-1.932;2023-02-28T04:30:59;102723.69;;;1.25;100.00
49645;BME280;36494;50.730;-1.932;2023-02-28T04:33:23;102726.08;;;1.23;100.00
49645;BME280;36494;50.730;-1.932;2023-02-28T04:35:50;102726.26;;;1.23;100.00
49645;BME280;36494;50.730;-1.932;2023-02-28T04:38:14;102727.31;;;1.21;100.00
49645;BME280;36494;50.730;-1.932;2023-02-28T04:40:39;102730.21;;;1.20;100.00
49645;BME280;36494;50.730;-1.932;2023-02-28T04:43:05;102734.15;;;1.19;100.00
49645;BME280;36494;50.730;-1.932;2023-02-28T04:45:30;102734.97;;;1.16;100.00
49645;BME280;36494;50.730;-1.932;2023-02-28T04:47:56;102740.07;;;1.16;100.00
49645;BME280;36494;50.730;-1.932;2023-02-28T04:50:21;102743.41;;;1.14;100.00
49645;BME280;36494;50.730;-1.932;2023-02-28T04:52:47;102750.43;;;1.13;100.00
49645;BME280;36494;50.730;-1.932;2023-02-28T04:55:12;102751.03;;;1.11;100.00
49645;BME280;36494;50.730;-1.932;2023-02-28T04:57:38;102752.96;;;1.09;100.00
49645;BME280;36494;50.730;-1.932;2023-02-28T05:00:04;102756.12;;;1.09;100.00
49645;BME280;36494;50.730;-1.932;2023-02-28T05:02:29;102762.68;;;1.08;100.00
49645;BME280;36494;50.730;-1.932;2023-02-28T05:04:54;102760.57;;;1.04;100.00
49645;BME280;36494;50.730;-1.932;2023-02-28T05:07:19;102767.18;;;1.04;100.00
49645;BME280;36494;50.730;-1.932;2023-02-28T05:09:45;102774.10;;;1.00;100.00
49645;BME280;36494;50.730;-1.932;2023-02-28T05:12:10;102781.17;;;1.01;100.00
49645;BME280;36494;50.730;-1.932;2023-02-28T05:14:35;102783.98;;;0.98;100.00
49645;BME280;36494;50.730;-1.932;2023-02-28T05:17:01;102787.24;;;0.97;100.00
49645;BME280;36494;50.730;-1.932;2023-02-28T05:19:26;102788.12;;;0.96;100.00
49645;BME280;36494;50.730;-1.932;2023-02-28T05:21:53;102790.61;;;0.95;100.00
49645;BME280;36494;50.730;-1.932;2023-02-28T05:24:17;102791.63;;;0.94;100.00
49645;BME280;36494;50.730;-1.932;2023-02-28T05:26:43;102790.66;;;0.93;100.00
49645;BME280;36494;50.730;-1.932;2023-02-28T05:29:08;102791.84;;;0.92;100.00
49645;BME280;36494;50.730;-1.932;2023-02-28T05:31:33;102794.09;;;0.92;100.00
49645;BME280;36494;50.730;-1.932;2023-02-28T05:33:59;102793.00;;;0.90;100.00
49645;BME280;36494;50.730;-1.932;2023-02-28T05:36:24;102794.01;;;0.89;100.00
49645;BME280;36494;50.730;-1.932;2023-02-28T05:38:50;102794.08;;;0.89;100.00
49645;BME280;36494;50.730;-1.932;2023-02-28T05:41:15;102794.20;;;0.90;100.00
49645;BME280;36494;50.730;-1.932;2023-02-28T05:43:40;102795.31;;;0.90;100.00
49645;BME280;36494;50.730;-1.932;2023-02-28T05:46:07;102789.13;;;0.88;100.00
49645;BME280;36494;50.730;-1.932;2023-02-28T05:48:31;102791.16;;;0.87;100.00
49645;BME280;36494;50.730;-1.932;2023-02-28T05:50:57;102791.31;;;0.88;100.00
49645;BME280;36494;50.730;-1.932;2023-02-28T05:53:22;102795.03;;;0.86;100.00
49645;BME280;36494;50.730;-1.932;2023-02-28T05:55:47;102798.04;;;0.86;100.00
49645;BME280;36494;50.730;-1.932;2023-02-28T05:58:13;102794.04;;;0.84;100.00
49645;BME280;36494;50.730;-1.932;2023-02-28T06:00:39;102788.92;;;0.84;100.00
49645;BME280;36494;50.730;-1.932;2023-02-28T06:03:04;102790.06;;;0.84;100.00
49645;BME280;36494;50.730;-1.932;2023-02-28T06:05:29;102788.46;;;0.81;100.00
49645;BME280;36494;50.730;-1.932;2023-02-28T06:07:55;102781.99;;;0.82;100.00
49645;BME280;36494;50.730;-1.932;2023-02-28T06:10:20;102787.31;;;0.81;100.00
49645;BME280;36494;50.730;-1.932;2023-02-28T06:12:46;102789.12;;;0.81;100.00
49645;BME280;36494;50.730;-1.932;2023-02-28T06:15:12;102793.61;;;0.80;100.00
49645;BME280;36494;50.730;-1.932;2023-02-28T06:17:37;102803.54;;;0.79;100.00
49645;BME280;36494;50.730;-1.932;2023-02-28T06:20:03;102811.74;;;0.79;100.00
49645;BME280;36494;50.730;-1.932;2023-02-28T06:22:28;102812.91;;;0.79;100.00
49645;BME280;36494;50.730;-1.932;2023-02-28T06:24:53;102817.16;;;0.80;100.00
49645;BME280;36494;50.730;-1.932;2023-02-28T06:27:19;102817.82;;;0.80;100.00
49645;BME280;36494;50.730;-1.932;2023-02-28T06:29:44;102817.17;;;0.79;100.00
49645;BME280;36494;50.730;-1.932;2023-02-28T06:32:10;102816.12;;;0.78;100.00
49645;BME280;36494;50.730;-1.932;2023-02-28T06:34:35;102811.77;;;0.76;100.00
49645;BME280;36494;50.730;-1.932;2023-02-28T06:37:00;102813.30;;;0.77;100.00
49645;BME280;36494;50.730;-1.932;2023-02-28T06:39:26;102813.43;;;0.77;100.00
49645;BME280;36494;50.730;-1.932;2023-02-28T06:41:52;102812.99;;;0.76;100.00
49645;BME280;36494;50.730;-1.932;2023-02-28T06:44:17;102816.84;;;0.77;100.00
49645;BME280;36494;50.730;-1.932;2023-02-28T06:46:44;102821.16;;;0.77;100.00
49645;BME280;36494;50.730;-1.932;2023-02-28T06:49:09;102817.02;;;0.77;100.00
49645;BME280;36494;50.730;-1.932;2023-02-28T06:51:35;102815.12;;;0.77;100.00
49645;BME280;36494;50.730;-1.932;2023-02-28T06:53:59;102818.95;;;0.75;100.00
49645;BME280;36494;50.730;-1.932;2023-02-28T06:56:25;102821.62;;;0.73;100.00
49645;BME280;36494;50.730;-1.932;2023-02-28T06:58:51;102822.88;;;0.75;100.00
49645;BME280;36494;50.730;-1.932;2023-02-28T07:01:16;102826.92;;;0.73;100.00
49645;BME280;36494;50.730;-1.932;2023-02-28T07:03:41;102834.32;;;0.73;100.00
49645;BME280;36494;50.730;-1.932;2023-02-28T07:06:07;102832.87;;;0.71;100.00
49645;BME280;36494;50.730;-1.932;2023-02-28T07:08:32;102834.28;;;0.74;100.00
49645;BME280;36494;50.730;-1.932;2023-02-28T07:10:57;102839.27;;;0.76;100.00
49645;BME280;36494;50.730;-1.932;2023-02-28T07:13:23;102841.05;;;0.74;100.00
49645;BME280;36494;50.730;-1.932;2023-02-28T07:15:54;102840.70;;;0.73;100.00
49645;BME280;36494;50.730;-1.932;2023-02-28T07:18:13;102840.34;;;0.74;100.00
49645;BME280;36494;50.730;-1.932;2023-02-28T07:20:38;102840.62;;;0.74;100.00
49645;BME280;36494;50.730;-1.932;2023-02-28T07:23:03;102847.19;;;0.73;100.00
49645;BME280;36494;50.730;-1.932;2023-02-28T07:25:29;102847.30;;;0.74;100.00
49645;BME280;36494;50.730;-1.932;2023-02-28T07:27:55;102845.99;;;0.74;100.00
49645;BME280;36494;50.730;-1.932;2023-02-28T07:30:20;102841.45;;;0.75;100.00
49645;BME280;36494;50.730;-1.932;2023-02-28T07:32:45;102840.85;;;0.74;100.00
49645;BME280;36494;50.730;-1.932;2023-02-28T07:35:10;102839.16;;;0.74;100.00
49645;BME280;36494;50.730;-1.932;2023-02-28T07:37:35;102837.92;;;0.75;100.00
49645;BME280;36494;50.730;-1.932;2023-02-28T07:40:01;102837.49;;;0.77;100.00
49645;BME280;36494;50.730;-1.932;2023-02-28T07:42:26;102837.73;;;0.78;100.00
49645;BME280;36494;50.730;-1.932;2023-02-28T07:44:52;102838.16;;;0.78;100.00
49645;BME280;36494;50.730;-1.932;2023-02-28T07:47:17;102834.16;;;0.80;100.00
49645;BME280;36494;50.730;-1.932;2023-02-28T07:49:44;102832.55;;;0.81;100.00
49645;BME280;36494;50.730;-1.932;2023-02-28T07:52:08;102835.11;;;0.85;100.00
49645;BME280;36494;50.730;-1.932;2023-02-28T07:54:33;102832.74;;;0.87;100.00
49645;BME280;36494;50.730;-1.932;2023-02-28T07:56:59;102832.61;;;0.89;100.00
49645;BME280;36494;50.730;-1.932;2023-02-28T07:59:24;102838.16;;;0.90;100.00
49645;BME280;36494;50.730;-1.932;2023-02-28T08:01:49;102835.09;;;0.93;100.00
49645;BME280;36494;50.730;-1.932;2023-02-28T08:04:15;102836.80;;;0.96;100.00
49645;BME280;36494;50.730;-1.932;2023-02-28T08:06:40;102834.20;;;0.98;100.00
49645;BME280;36494;50.730;-1.932;2023-02-28T08:09:05;102834.49;;;1.02;100.00
49645;BME280;36494;50.730;-1.932;2023-02-28T08:11:30;102835.37;;;1.05;100.00
49645;BME280;36494;50.730;-1.932;2023-02-28T08:13:56;102836.68;;;1.09;100.00
49645;BME280;36494;50.730;-1.932;2023-02-28T08:16:21;102841.27;;;1.13;100.00
49645;BME280;36494;50.730;-1.932;2023-02-28T08:18:46;102843.12;;;1.16;100.00
49645;BME280;36494;50.730;-1.932;2023-02-28T08:21:12;102837.79;;;1.20;100.00
49645;BME280;36494;50.730;-1.932;2023-02-28T08:23:38;102837.78;;;1.23;100.00
49645;BME280;36494;50.730;-1.932;2023-02-28T08:26:03;102840.16;;;1.29;100.00
49645;BME280;36494;50.730;-1.932;2023-02-28T08:28:29;102834.83;;;1.33;100.00
49645;BME280;36494;50.730;-1.932;2023-02-28T08:30:54;102834.19;;;1.37;100.00
49645;BME280;36494;50.730;-1.932;2023-02-28T08:33:20;102836.10;;;1.40;100.00
49645;BME280;36494;50.730;-1.932;2023-02-28T08:35:45;102835.76;;;1.46;100.00
49645;BME280;36494;50.730;-1.932;2023-02-28T08:38:10;102838.50;;;1.51;100.00
49645;BME280;36494;50.730;-1.932;2023-02-28T08:40:36;102841.10;;;1.58;100.00
49645;BME280;36494;50.730;-1.932;2023-02-28T08:43:01;102843.20;;;1.64;100.00
49645;BME280;36494;50.730;-1.932;2023-02-28T08:45:27;102847.16;;;1.71;100.00
49645;BME280;36494;50.730;-1.932;2023-02-28T08:47:54;102840.66;;;1.76;100.00
49645;BME280;36494;50.730;-1.932;2023-02-28T08:50:18;102846.23;;;1.83;100.00
49645;BME280;36494;50.730;-1.932;2023-02-28T08:52:43;102846.31;;;1.90;100.00
49645;BME280;36494;50.730;-1.932;2023-02-28T08:55:09;102843.97;;;1.95;100.00
49645;BME280;36494;50.730;-1.932;2023-02-28T08:57:34;102847.85;;;2.01;100.00
49645;BME280;36494;50.730;-1.932;2023-02-28T08:59:59;102851.55;;;2.08;100.00
49645;BME280;36494;50.730;-1.932;2023-02-28T09:02:24;102849.69;;;2.14;100.00
49645;BME280;36494;50.730;-1.932;2023-02-28T09:04:50;102848.61;;;2.21;100.00
49645;BME280;36494;50.730;-1.932;2023-02-28T09:07:15;102847.43;;;2.29;100.00
49645;BME280;36494;50.730;-1.932;2023-02-28T09:09:41;102850.89;;;2.34;100.00
49645;BME280;36494;50.730;-1.932;2023-02-28T09:12:07;102849.13;;;2.42;100.00
49645;BME280;36494;50.730;-1.932;2023-02-28T09:14:32;102847.86;;;2.50;100.00
49645;BME280;36494;50.730;-1.932;2023-02-28T09:16:58;102851.30;;;2.56;100.00
49645;BME280;36494;50.730;-1.932;2023-02-28T09:19:23;102854.25;;;2.61;100.00
49645;BME280;36494;50.730;-1.932;2023-02-28T09:21:49;102857.10;;;2.69;100.00
49645;BME280;36494;50.730;-1.932;2023-02-28T09:24:14;102855.93;;;2.77;100.00
49645;BME280;36494;50.730;-1.932;2023-02-28T09:26:40;102853.71;;;2.86;100.00
49645;BME280;36494;50.730;-1.932;2023-02-28T09:29:06;102855.47;;;2.96;100.00
49645;BME280;36494;50.730;-1.932;2023-02-28T09:31:31;102852.88;;;3.07;100.00
49645;BME280;36494;50.730;-1.932;2023-02-28T09:33:57;102857.59;;;3.14;100.00
49645;BME280;36494;50.730;-1.932;2023-02-28T09:36:23;102851.65;;;3.22;100.00
49645;BME280;36494;50.730;-1.932;2023-02-28T09:38:47;102851.64;;;3.32;100.00
49645;BME280;36494;50.730;-1.932;2023-02-28T09:41:15;102851.91;;;3.37;100.00
49645;BME280;36494;50.730;-1.932;2023-02-28T09:43:41;102850.61;;;3.44;100.00
49645;BME280;36494;50.730;-1.932;2023-02-28T09:46:11;102850.68;;;3.53;100.00
49645;BME280;36494;50.730;-1.932;2023-02-28T09:48:33;102844.13;;;3.60;100.00
49645;BME280;36494;50.730;-1.932;2023-02-28T09:51:00;102844.57;;;3.69;100.00
49645;BME280;36494;50.730;-1.932;2023-02-28T09:53:24;102840.41;;;3.76;100.00
49645;BME280;36494;50.730;-1.932;2023-02-28T09:55:49;102841.70;;;3.83;100.00
49645;BME280;36494;50.730;-1.932;2023-02-28T09:58:17;102843.46;;;3.89;100.00
49645;BME280;36494;50.730;-1.932;2023-02-28T10:00:39;102841.44;;;3.95;100.00
49645;BME280;36494;50.730;-1.932;2023-02-28T10:03:22;102838.83;;;4.03;100.00
49645;BME280;36494;50.730;-1.932;2023-02-28T10:05:31;102841.45;;;4.08;100.00
49645;BME280;36494;50.730;-1.932;2023-02-28T10:08:02;102840.88;;;4.14;100.00
49645;BME280;36494;50.730;-1.932;2023-02-28T10:10:22;102837.82;;;4.17;100.00
49645;BME280;36494;50.730;-1.932;2023-02-28T10:12:45;102839.00;;;4.22;100.00
49645;BME280;36494;50.730;-1.932;2023-02-28T10:15:14;102838.16;;;4.29;100.00
49645;BME280;36494;50.730;-1.932;2023-02-28T10:17:38;102834.84;;;4.38;100.00
49645;BME280;36494;50.730;-1.932;2023-02-28T10:20:03;102835.14;;;4.46;100.00
49645;BME280;36494;50.730;-1.932;2023-02-28T10:22:29;102833.58;;;4.53;100.00
49645;BME280;36494;50.730;-1.932;2023-02-28T10:24:53;102821.70;;;4.65;100.00
49645;BME280;36494;50.730;-1.932;2023-02-28T10:27:18;102820.10;;;4.72;100.00
49645;BME280;36494;50.730;-1.932;2023-02-28T10:29:45;102818.04;;;4.78;100.00
49645;BME280;36494;50.730;-1.932;2023-02-28T10:32:11;102810.61;;;4.87;100.00
49645;BME280;36494;50.730;-1.932;2023-02-28T10:34:32;102810.14;;;4.96;100.00
49645;BME280;36494;50.730;-1.932;2023-02-28T10:36:59;102800.27;;;5.21;100.00
49645;BME280;36494;50.730;-1.932;2023-02-28T10:39:35;102797.44;;;5.24;100.00
49645;BME280;36494;50.730;-1.932;2023-02-28T10:41:48;102796.42;;;5.63;100.00
49645;BME280;36494;50.730;-1.932;2023-02-28T10:44:20;102792.10;;;5.79;100.00
49645;BME280;36494;50.730;-1.932;2023-02-28T10:46:40;102792.17;;;6.16;100.00
49645;BME280;36494;50.730;-1.932;2023-02-28T10:49:07;102791.18;;;6.45;100.00
49645;BME280;36494;50.730;-1.932;2023-02-28T10:51:35;102787.62;;;6.50;100.00
49645;BME280;36494;50.730;-1.932;2023-02-28T10:53:55;102786.65;;;6.40;100.00
49645;BME280;36494;50.730;-1.932;2023-02-28T10:56:21;102780.73;;;6.69;100.00
49645;BME280;36494;50.730;-1.932;2023-02-28T10:58:49;102779.09;;;6.78;100.00
49645;BME280;36494;50.730;-1.932;2023-02-28T11:01:14;102774.89;;;6.98;100.00
49645;BME280;36494;50.730;-1.932;2023-02-28T11:03:36;102771.38;;;7.42;100.00
49645;BME280;36494;50.730;-1.932;2023-02-28T11:06:07;102774.95;;;7.71;100.00
49645;BME280;36494;50.730;-1.932;2023-02-28T11:08:27;102770.21;;;7.99;100.00
49645;BME280;36494;50.730;-1.932;2023-02-28T11:10:55;102769.64;;;8.21;100.00
49645;BME280;36494;50.730;-1.932;2023-02-28T11:13:20;102765.14;;;7.90;100.00
49645;BME280;36494;50.730;-1.932;2023-02-28T11:15:50;102766.86;;;7.77;100.00
49645;BME280;36494;50.730;-1.932;2023-02-28T11:18:19;102762.33;;;8.18;100.00
49645;BME280;36494;50.730;-1.932;2023-02-28T11:20:34;102762.82;;;8.54;100.00
49645;BME280;36494;50.730;-1.932;2023-02-28T11:23:01;102758.68;;;8.77;100.00
49645;BME280;36494;50.730;-1.932;2023-02-28T11:25:28;102754.97;;;8.76;100.00
49645;BME280;36494;50.730;-1.932;2023-02-28T11:27:51;102753.12;;;8.77;100.00
49645;BME280;36494;50.730;-1.932;2023-02-28T11:30:27;102755.12;;;8.63;100.00
49645;BME280;36494;50.730;-1.932;2023-02-28T11:32:48;102751.24;;;8.52;100.00
49645;BME280;36494;50.730;-1.932;2023-02-28T11:35:17;102749.17;;;8.49;100.00
49645;BME280;36494;50.730;-1.932;2023-02-28T11:37:32;102749.64;;;8.50;100.00
49645;BME280;36494;50.730;-1.932;2023-02-28T11:39:57;102749.16;;;8.32;100.00
49645;BME280;36494;50.730;-1.932;2023-02-28T11:42:33;102758.70;;;8.27;100.00
49645;BME280;36494;50.730;-1.932;2023-02-28T11:44:58;102753.55;;;8.17;100.00
49645;BME280;36494;50.730;-1.932;2023-02-28T11:47:18;102752.14;;;8.06;100.00
49645;BME280;36494;50.730;-1.932;2023-02-28T11:49:45;102744.37;;;8.05;100.00
49645;BME280;36494;50.730;-1.932;2023-02-28T11:52:10;102743.78;;;8.03;100.00
49645;BME280;36494;50.730;-1.932;2023-02-28T11:54:41;102737.66;;;8.03;100.00
49645;BME280;36494;50.730;-1.932;2023-02-28T11:56:58;102731.69;;;7.96;100.00
49645;BME280;36494;50.730;-1.932;2023-02-28T11:59:34;102728.22;;;8.10;100.00
49645;BME280;36494;50.730;-1.932;2023-02-28T12:02:01;102721.49;;;8.10;100.00
49645;BME280;36494;50.730;-1.932;2023-02-28T12:04:20;102722.97;;;7.99;100.00
49645;BME280;36494;50.730;-1.932;2023-02-28T12:06:40;102732.41;;;8.13;100.00
49645;BME280;36494;50.730;-1.932;2023-02-28T12:09:11;102729.43;;;8.42;100.00
49645;BME280;36494;50.730;-1.932;2023-02-28T12:11:42;102729.21;;;8.38;100.00
49645;BME280;36494;50.730;-1.932;2023-02-28T12:14:01;102729.00;;;8.33;100.00
49645;BME280;36494;50.730;-1.932;2023-02-28T12:16:32;102719.06;;;8.32;100.00
49645;BME280;36494;50.730;-1.932;2023-02-28T12:18:53;102715.49;;;8.29;100.00
49645;BME280;36494;50.730;-1.932;2023-02-28T12:21:14;102714.99;;;8.20;100.00
49645;BME280;36494;50.730;-1.932;2023-02-28T12:23:46;102704.55;;;8.14;100.00
49645;BME280;36494;50.730;-1.932;2023-02-28T12:26:05;102705.66;;;8.40;100.00
49645;BME280;36494;50.730;-1.932;2023-02-28T12:28:27;102696.04;;;8.38;100.00
49645;BME280;36494;50.730;-1.932;2023-02-28T12:30:54;102703.42;;;8.46;100.00
49645;BME280;36494;50.730;-1.932;2023-02-28T12:33:17;102688.94;;;8.26;100.00